Time;durP1;ratioP1;P1;durP2;ratioP2;P2;SDS_P1;SDS_P2;PMS_P1;PMS_P2;Temp;Humidity;BMP_temperature;BMP_pressure;BME280_temperature;BME280_humidity;BME280_pressure;Samples;Min_cycle;Max_cycle;Signal;HPM_P1;HPM_P2
2022/11/16 00:00:18;;;;;;;16.33;11.40;;;6.40;95.10;;;6.49;82.90;96804.38;5022352;28;20486;-74
2022/11/16 00:02:46;;;;;;;18.73;13.53;;;6.40;95.20;;;6.43;83.39;96802.56;5023635;28;20462;-76
2022/11/16 00:05:14;;;;;;;15.93;12.77;;;6.40;95.00;;;6.43;83.44;96805.25;5024593;28;20455;-73
2022/11/16 00:07:41;;;;;;;15.50;12.60;;;6.40;94.90;;;6.33;83.06;96799.56;5026392;28;20858;-74
2022/11/16 00:10:10;;;;;;;15.27;12.23;;;6.40;94.50;;;6.29;83.49;96795.66;5034806;28;20489;-76
2022/11/16 00:12:38;;;;;;;14.83;12.40;;;6.30;94.50;;;6.28;83.18;96794.84;5034820;28;20549;-75
2022/11/16 00:15:07;;;;;;;17.77;13.87;;;6.30;94.00;;;6.10;83.65;96784.84;5031330;28;20451;-73
2022/11/16 00:17:35;;;;;;;19.23;12.20;;;6.30;93.90;;;5.99;84.19;96774.78;5033201;28;20540;-74
2022/11/16 00:20:04;;;;;;;16.13;12.70;;;6.20;93.90;;;6.03;84.30;96768.00;5046983;28;20462;-76
2022/11/16 00:22:31;;;;;;;15.67;13.10;;;6.20;94.00;;;6.08;83.56;96760.13;5026236;28;20469;-74
2022/11/16 00:24:58;;;;;;;15.67;12.30;;;6.20;93.70;;;6.10;83.53;96758.03;5038356;28;20457;-73
2022/11/16 00:27:26;;;;;;;15.00;12.03;;;6.30;93.20;;;6.27;83.01;96763.69;5032900;28;20938;-78
2022/11/16 00:29:53;;;;;;;18.67;13.17;;;6.30;93.20;;;6.08;82.67;96771.69;5040719;28;20481;-74
2022/11/16 00:32:20;;;;;;;14.30;11.60;;;6.30;92.40;;;6.20;82.55;96757.53;5050121;28;21065;-77
2022/11/16 00:34:49;;;;;;;21.63;13.27;;;6.40;92.40;;;6.30;82.17;96754.41;5022117;28;20465;-75
2022/11/16 00:37:16;;;;;;;17.20;12.27;;;6.40;92.40;;;6.13;82.50;96752.22;5022033;28;20450;-73
2022/11/16 00:39:43;;;;;;;16.97;12.30;;;6.40;92.10;;;6.17;82.73;96758.81;5022805;28;20466;-75
2022/11/16 00:42:10;;;;;;;15.50;12.43;;;6.40;92.30;;;6.27;81.53;96773.59;5035731;28;20475;-75
2022/11/16 00:44:37;;;;;;;16.40;12.37;;;6.40;92.10;;;6.34;81.66;96766.31;5019117;28;20478;-75
2022/11/16 00:47:05;;;;;;;15.70;12.50;;;6.40;91.90;;;6.38;81.09;96770.19;5026120;28;20450;-76
2022/11/16 00:49:32;;;;;;;17.40;13.50;;;6.50;91.60;;;6.37;81.03;96757.84;5034959;28;20482;-74
2022/11/16 00:52:01;;;;;;;17.77;13.43;;;6.50;91.50;;;6.52;80.39;96771.72;5025695;28;20466;-75
2022/11/16 00:54:28;;;;;;;16.23;11.80;;;6.50;91.60;;;6.39;80.48;96761.13;5022111;28;20454;-77
2022/11/16 00:56:55;;;;;;;15.13;12.13;;;6.50;91.20;;;6.50;80.14;96763.09;5033560;28;20819;-77
2022/11/16 00:59:22;;;;;;;14.83;12.03;;;6.50;91.00;;;6.45;80.48;96754.06;5039703;28;20527;-76
2022/11/16 01:01:50;;;;;;;13.37;11.80;;;6.50;90.90;;;6.11;80.76;96735.53;5039936;28;20482;-79
2022/11/16 01:04:18;;;;;;;16.57;12.90;;;6.50;90.70;;;6.36;80.16;96762.38;5028766;28;20968;-78
2022/11/16 01:06:46;;;;;;;16.60;13.00;;;6.50;90.90;;;6.28;80.19;96757.28;5039157;28;20473;-75
2022/11/16 01:09:14;;;;;;;13.23;11.23;;;6.50;90.40;;;6.35;80.49;96760.72;5023776;28;20463;-76
2022/11/16 01:14:26;;;;;;;15.03;11.40;;;6.50;90.50;;;6.51;79.93;96761.22;5014172;28;20444;-74
2022/11/16 01:16:54;;;;;;;15.93;12.63;;;6.50;90.60;;;6.41;79.27;96769.75;5012894;28;20953;-75
2022/11/16 01:19:21;;;;;;;14.93;12.20;;;6.60;90.10;;;6.24;80.08;96770.31;5041624;28;20443;-74
2022/11/16 01:21:48;;;;;;;16.30;12.30;;;6.50;90.00;;;6.26;79.49;96774.63;5031505;28;20482;-73
2022/11/16 01:24:17;;;;;;;18.17;12.70;;;6.50;89.80;;;6.38;79.89;96770.19;5028096;28;20453;-77
2022/11/16 01:26:44;;;;;;;15.13;11.53;;;6.50;90.00;;;6.45;79.17;96781.72;5032551;28;20454;-75
2022/11/16 01:29:12;;;;;;;15.97;12.77;;;6.50;89.80;;;6.31;79.14;96780.97;5031994;28;20462;-76
2022/11/16 01:31:40;;;;;;;16.10;13.77;;;6.50;89.10;;;6.24;79.91;96773.00;5023203;28;20470;-74
2022/11/16 01:34:08;;;;;;;15.13;11.87;;;6.50;89.50;;;6.24;80.04;96775.66;5021570;28;21004;-74
2022/11/16 01:36:36;;;;;;;18.57;13.77;;;6.50;89.40;;;6.32;79.41;96771.09;5023721;28;20458;-73
2022/11/16 01:39:03;;;;;;;17.17;13.47;;;6.50;89.60;;;6.31;80.12;96769.44;5039283;28;20472;-75
2022/11/16 01:41:33;;;;;;;15.53;12.10;;;6.50;90.10;;;6.38;80.17;96765.66;5039091;28;21096;-76
2022/11/16 01:44:03;;;;;;;15.17;12.10;;;6.50;90.20;;;6.26;80.07;96763.91;5028769;28;20451;-73
2022/11/16 01:46:32;;;;;;;16.53;13.30;;;6.50;90.00;;;6.29;80.19;96760.78;5032965;28;20483;-74
2022/11/16 01:49:05;;;;;;;17.47;12.67;;;6.50;90.10;;;6.24;80.44;96756.91;5025388;28;20442;-75
2022/11/16 01:51:34;;;;;;;18.50;13.70;;;6.50;90.30;;;6.30;79.81;96751.72;5041814;28;20466;-74
2022/11/16 01:54:05;;;;;;;17.33;12.90;;;6.50;90.30;;;6.10;79.51;96696.34;5021065;28;20458;-71
2022/11/16 01:56:36;;;;;;;17.57;13.10;;;6.50;90.30;;;6.32;80.39;96760.34;5032544;28;20519;-72
2022/11/16 01:59:03;;;;;;;16.93;13.33;;;6.50;90.50;;;6.33;81.39;96751.28;5033827;28;20450;-75
2022/11/16 02:01:30;;;;;;;13.80;11.97;;;6.50;91.40;;;6.27;81.35;96755.66;5025050;28;20483;-73
2022/11/16 02:03:58;;;;;;;18.67;14.23;;;6.40;91.20;;;6.12;81.55;96753.28;5028473;28;20508;-74
2022/11/16 02:06:43;;;;;;;18.10;13.73;;;6.40;91.50;;;6.10;82.45;96752.66;5028616;28;20493;-75
2022/11/16 02:09:53;;;;;;;21.23;13.83;;;6.40;91.70;;;6.10;82.21;96736.59;5029782;28;20462;-76
2022/11/16 02:12:42;;;;;;;18.53;14.33;;;6.40;92.00;;;6.24;83.00;96751.53;5030773;28;20458;-72
2022/11/16 02:15:20;;;;;;;19.00;15.50;;;6.40;92.70;;;6.10;83.34;96741.94;5028823;28;20479;-74
2022/11/16 02:18:03;;;;;;;19.10;14.23;;;6.40;92.90;;;6.10;83.44;96747.31;5024896;28;21049;-72
2022/11/16 02:21:04;;;;;;;19.93;14.90;;;6.40;93.20;;;6.03;84.27;96749.22;5037576;28;20459;-73
2022/11/16 02:24:01;;;;;;;21.07;14.93;;;6.40;93.50;;;6.15;83.52;96743.97;5040617;28;20451;-72
2022/11/16 02:26:55;;;;;;;22.10;16.07;;;6.30;93.60;;;6.20;83.83;96747.66;5021775;28;21123;-73
2022/11/16 02:29:28;;;;;;;22.03;16.03;;;6.40;93.60;;;6.12;83.71;96734.50;5018323;28;20447;-74
2022/11/16 02:32:01;;;;;;;20.97;15.13;;;6.40;93.60;;;6.20;83.68;96744.97;5039628;28;20873;-75
2022/11/16 02:34:35;;;;;;;19.50;15.63;;;6.40;93.40;;;6.11;84.12;96740.09;5021260;28;20455;-74
2022/11/16 02:37:05;;;;;;;17.83;13.83;;;6.40;93.60;;;6.05;84.29;96739.09;5017478;28;20545;-76
2022/11/16 02:39:35;;;;;;;20.50;15.00;;;6.30;94.00;;;5.86;85.04;96740.84;5037426;28;20955;-75
2022/11/16 02:42:07;;;;;;;19.87;15.37;;;6.20;94.00;;;5.58;84.96;96683.09;5022480;28;20550;-73
2022/11/16 02:44:39;;;;;;;21.87;16.20;;;6.20;94.90;;;6.10;85.10;96739.25;5026125;28;20458;-74
2022/11/16 02:47:11;;;;;;;21.40;16.47;;;6.20;95.50;;;6.02;85.29;96731.50;5026527;28;20473;-72
2022/11/16 02:49:45;;;;;;;20.40;15.53;;;6.30;95.20;;;5.98;85.09;96722.19;5020812;28;20463;-73
2022/11/16 02:52:15;;;;;;;22.13;16.17;;;6.20;95.20;;;5.99;85.07;96727.34;5018212;28;20458;-74
2022/11/16 02:54:42;;;;;;;21.70;16.53;;;6.20;95.00;;;5.94;85.74;96733.38;5023200;28;20463;-74
2022/11/16 02:57:44;;;;;;;18.50;15.53;;;6.20;95.60;;;5.94;86.26;96733.38;5038652;28;20470;-76
2022/11/16 03:00:20;;;;;;;21.80;15.30;;;6.20;96.10;;;6.02;86.14;96726.94;4989375;28;20454;-72
2022/11/16 03:03:00;;;;;;;21.37;16.00;;;6.20;96.50;;;5.99;86.71;96719.31;5031755;28;20478;-75
2022/11/16 03:05:34;;;;;;;20.97;15.60;;;6.20;96.70;;;6.09;85.99;96726.91;5033006;28;20455;-73
2022/11/16 03:08:12;;;;;;;23.73;16.67;;;6.20;97.00;;;6.11;86.54;96727.50;5039533;28;20438;-73
2022/11/16 03:13:31;;;;;;;23.13;17.30;;;6.20;98.00;;;5.96;86.81;96723.25;5025834;28;20462;-74
2022/11/16 03:16:04;;;;;;;22.63;17.10;;;6.20;98.40;;;6.00;87.38;96730.88;5035321;28;20969;-72
2022/11/16 03:18:32;;;;;;;25.90;18.10;;;6.20;98.90;;;6.03;87.79;96733.13;5037791;28;20456;-73
2022/11/16 03:21:10;;;;;;;23.20;17.43;;;6.20;99.30;;;6.19;88.04;96731.75;5022170;28;20447;-73
2022/11/16 03:23:38;;;;;;;23.90;16.63;;;6.30;99.90;;;6.29;88.04;96747.34;5037585;28;20550;-75
2022/11/16 03:26:08;;;;;;;23.63;17.83;;;6.20;99.90;;;6.36;87.85;96750.81;5026058;28;20447;-75
2022/11/16 03:28:43;;;;;;;23.37;18.30;;;6.30;99.90;;;6.34;88.31;96748.34;5029638;28;20552;-75
2022/11/16 03:31:18;;;;;;;22.40;17.40;;;6.30;99.90;;;6.44;87.15;96753.22;5026128;28;21059;-74
2022/11/16 03:33:51;;;;;;;28.50;18.47;;;6.40;99.90;;;6.04;87.32;96702.59;5025080;28;20447;-73
2022/11/16 03:36:25;;;;;;;23.90;17.40;;;6.30;99.90;;;6.23;86.99;96747.22;5034558;28;20455;-73
2022/11/16 03:38:54;;;;;;;23.87;16.80;;;6.40;99.00;;;6.13;87.69;96746.06;5023889;28;20482;-73
2022/11/16 03:41:23;;;;;;;23.40;17.80;;;6.40;98.80;;;6.03;88.54;96743.88;5022269;28;20467;-75
2022/11/16 03:43:51;;;;;;;23.20;17.07;;;6.30;99.90;;;6.09;88.90;96759.06;5020244;28;20469;-74
2022/11/16 03:46:20;;;;;;;22.33;17.00;;;6.20;99.90;;;5.99;89.09;96756.00;5032661;28;20504;-73
2022/11/16 03:48:48;;;;;;;24.20;18.23;;;6.20;99.90;;;6.02;90.04;96771.72;5022329;28;20467;-75
2022/11/16 03:51:15;;;;;;;23.93;18.27;;;6.20;99.90;;;6.13;88.95;96762.97;5020119;28;20465;-75
2022/11/16 03:53:42;;;;;;;25.17;17.90;;;6.20;99.90;;;6.27;88.38;96760.16;5024672;28;20466;-74
2022/11/16 03:56:10;;;;;;;22.40;17.50;;;6.20;99.90;;;6.14;88.80;96751.22;5019419;28;20446;-76
2022/11/16 03:58:37;;;;;;;20.63;17.37;;;6.20;99.90;;;6.11;88.69;96754.31;5021412;28;20457;-77
2022/11/16 04:01:05;;;;;;;26.17;18.70;;;6.30;99.90;;;5.84;88.98;96706.25;5021314;28;20558;-75
2022/11/16 04:03:34;;;;;;;23.93;18.30;;;6.30;99.90;;;6.18;88.66;96768.50;5021830;28;20509;-73
2022/11/16 04:25:37;;;;;;;27.43;18.83;;;6.20;99.90;;;5.64;90.76;96717.88;5029798;28;20957;-74
2022/11/16 04:28:15;;;;;;;24.43;18.17;;;6.20;99.90;;;5.91;91.60;96765.97;5023964;28;20461;-74
2022/11/16 04:39:03;;;;;;;28.07;18.73;;;6.20;99.90;;;5.91;92.21;96735.66;5021343;28;20517;-74
2022/11/16 04:44:18;;;;;;;24.90;17.80;;;6.20;99.90;;;5.93;92.55;96749.69;5023786;28;20451;-75
2022/11/16 04:49:31;;;;;;;24.90;18.87;;;6.10;99.90;;;5.93;91.15;96731.72;5038810;28;20478;-74
2022/11/16 04:52:00;;;;;;;27.43;18.63;;;6.10;99.90;;;6.11;91.40;96754.31;5022910;28;20455;-75
2022/11/16 04:54:27;;;;;;;21.93;17.40;;;6.20;99.90;;;6.04;91.35;96753.56;5025605;28;20456;-72
2022/11/16 04:56:55;;;;;;;22.30;17.30;;;6.20;99.90;;;5.91;91.55;96754.41;5031756;28;20469;-75
2022/11/16 04:59:22;;;;;;;22.90;17.20;;;6.10;99.90;;;5.84;92.11;96743.75;5023217;28;20458;-75
2022/11/16 05:04:34;;;;;;;24.20;18.03;;;6.00;99.90;;;5.91;92.11;96755.25;5046231;28;20534;-77
2022/11/16 05:07:09;;;;;;;23.20;17.63;;;6.00;99.90;;;6.15;90.86;96744.81;5026806;28;20537;-75
2022/11/16 05:09:40;;;;;;;22.10;17.00;;;6.10;99.90;;;5.94;91.07;96748.66;5035549;28;20478;-75
2022/11/16 05:12:08;;;;;;;22.80;16.60;;;6.10;99.90;;;5.95;91.52;96744.91;5032231;28;20972;-75
2022/11/16 05:14:35;;;;;;;23.00;17.90;;;6.10;99.90;;;5.95;91.75;96735.00;5026557;28;20459;-74
2022/11/16 05:17:02;;;;;;;25.73;19.30;;;6.10;99.90;;;5.82;92.76;96743.13;5029774;28;20472;-76
2022/11/16 05:22:16;;;;;;;26.70;18.90;;;6.00;99.90;;;5.95;92.37;96735.00;5040998;28;20487;-74
2022/11/16 05:24:43;;;;;;;27.03;18.53;;;6.00;99.90;;;5.91;92.52;96738.34;5035170;28;20505;-76
2022/11/16 05:27:15;;;;;;;25.20;19.40;;;6.10;99.90;;;5.81;93.01;96731.59;5033566;28;20451;-72
2022/11/16 05:29:44;;;;;;;27.87;20.00;;;6.00;99.90;;;5.75;93.12;96731.66;5038579;28;20480;-73
2022/11/16 05:32:13;;;;;;;29.70;18.80;;;6.00;99.90;;;5.83;93.55;96731.38;5031303;28;20450;-73
2022/11/16 05:34:40;;;;;;;30.13;20.37;;;6.00;99.90;;;5.94;92.67;96728.00;5029063;28;20469;-75
2022/11/16 05:37:10;;;;;;;25.53;18.30;;;6.10;99.90;;;6.03;91.94;96715.19;5027840;28;20461;-71
2022/11/16 05:39:39;;;;;;;27.80;20.23;;;6.10;99.90;;;5.73;93.77;96714.97;5030967;28;20470;-71
2022/11/16 05:42:07;;;;;;;26.10;18.80;;;6.10;99.90;;;5.94;93.46;96724.50;5011718;28;20482;-71
2022/11/16 05:44:34;;;;;;;28.40;20.40;;;6.10;99.90;;;5.95;93.50;96724.28;5010769;28;20456;-71
2022/11/16 05:47:02;;;;;;;27.27;19.90;;;6.10;99.90;;;5.89;93.98;96730.53;5007678;28;20834;-69
2022/11/16 05:49:30;;;;;;;29.73;20.40;;;6.10;99.90;;;5.99;94.36;96723.84;5022351;28;20958;-79
2022/11/16 05:51:58;;;;;;;26.70;19.40;;;6.10;99.90;;;6.02;93.28;96726.13;5015371;28;20814;-71
2022/11/16 05:54:25;;;;;;;27.43;18.93;;;6.20;99.90;;;6.18;93.54;96725.59;5017221;28;20537;-71
2022/11/16 05:56:54;;;;;;;32.20;20.30;;;6.20;99.90;;;6.19;93.22;96724.56;5016202;28;20462;-70
2022/11/16 05:59:23;;;;;;;28.93;21.03;;;6.30;99.90;;;6.18;92.65;96722.06;5020113;28;20459;-69
2022/11/16 06:01:51;;;;;;;26.60;19.27;;;6.30;99.90;;;6.29;92.49;96725.91;5018046;28;20476;-71
2022/11/16 06:04:19;;;;;;;26.00;19.07;;;6.40;99.90;;;6.38;92.33;96721.91;5021877;28;20478;-72
2022/11/16 06:06:47;;;;;;;28.77;20.27;;;6.40;99.90;;;6.32;92.76;96715.56;5022207;28;20467;-69
2022/11/16 06:09:15;;;;;;;27.70;20.70;;;6.40;99.90;;;6.43;91.91;96714.00;5023548;28;21252;-71
2022/11/16 06:11:42;;;;;;;27.20;19.77;;;6.50;99.90;;;6.19;92.75;96708.47;5023690;28;20591;-71
2022/11/16 06:14:11;;;;;;;27.33;19.70;;;6.50;99.90;;;6.33;92.30;96716.41;5019286;28;20463;-72
2022/11/16 06:16:38;;;;;;;28.13;20.70;;;6.50;99.90;;;6.26;92.94;96712.94;5019867;28;20472;-69
2022/11/16 06:19:05;;;;;;;28.20;20.63;;;6.50;99.90;;;6.37;93.10;96709.53;5022684;28;20477;-69
2022/11/16 06:21:34;;;;;;;26.60;19.50;;;6.50;99.90;;;6.35;92.75;96717.78;5023244;28;20464;-72
2022/11/16 06:24:04;;;;;;;25.73;19.43;;;6.50;99.90;;;6.34;92.24;96708.09;5034395;28;20877;-69
2022/11/16 06:26:32;;;;;;;29.33;21.27;;;6.50;99.90;;;6.35;92.82;96714.31;5034246;28;20559;-70
2022/11/16 06:28:59;;;;;;;25.87;19.83;;;6.50;99.90;;;6.34;92.88;96701.94;5017394;28;20479;-68
2022/11/16 06:31:28;;;;;;;27.80;21.03;;;6.50;99.90;;;6.28;93.41;96708.16;5023085;28;21144;-69
2022/11/16 06:33:55;;;;;;;29.20;20.10;;;6.50;99.90;;;6.35;93.33;96717.00;5017682;28;21726;-69
2022/11/16 06:36:23;;;;;;;27.03;19.87;;;6.50;99.90;;;6.38;92.92;96708.50;5018789;28;20442;-68
2022/11/16 06:38:53;;;;;;;29.27;20.90;;;6.60;99.90;;;6.43;92.54;96700.59;5032413;28;20533;-68
2022/11/16 06:41:20;;;;;;;29.00;21.20;;;6.60;99.90;;;6.51;92.65;96708.38;5020212;28;21352;-70
2022/11/16 06:43:48;;;;;;;28.43;20.83;;;6.60;99.90;;;6.48;92.56;96699.94;5027840;28;20474;-70
2022/11/16 06:46:15;;;;;;;25.30;20.53;;;6.60;99.90;;;6.35;93.23;96707.06;5013099;28;20495;-69
2022/11/16 06:48:43;;;;;;;28.50;20.87;;;6.60;99.90;;;6.20;92.27;96651.09;5011962;28;20474;-69
2022/11/16 06:51:10;;;;;;;29.67;21.67;;;6.60;99.90;;;6.47;91.63;96704.50;5013497;28;20472;-69
2022/11/16 06:53:39;;;;;;;29.60;22.47;;;6.60;99.90;;;6.41;92.29;96700.00;5016794;28;20470;-69
2022/11/16 06:56:07;;;;;;;29.42;21.98;;;6.60;99.90;;;6.66;91.50;96707.19;5010220;28;20568;-69
2022/11/16 06:58:34;;;;;;;26.23;20.03;;;6.60;99.90;;;6.73;91.37;96702.56;5008450;28;20251;-70
2022/11/16 07:01:06;;;;;;;24.70;19.50;;;6.70;99.90;;;6.59;91.28;96701.06;5013488;28;20486;-70
2022/11/16 07:03:34;;;;;;;28.00;19.40;;;6.70;99.90;;;6.57;92.17;96697.78;5013609;28;20488;-70
2022/11/16 07:06:07;;;;;;;31.13;19.67;;;6.70;99.90;;;6.52;92.10;96693.91;5019607;28;20545;-70
2022/11/16 07:08:35;;;;;;;28.77;21.13;;;6.70;99.90;;;6.75;91.60;96711.25;5037772;28;20802;-73
2022/11/16 07:11:04;;;;;;;25.73;20.20;;;6.70;99.90;;;6.77;91.02;96713.69;5018720;28;20507;-70
2022/11/16 07:13:32;;;;;;;29.30;20.97;;;6.80;99.90;;;6.85;91.40;96704.50;5018713;28;20462;-71
2022/11/16 07:16:04;;;;;;;24.73;19.90;;;6.80;99.90;;;6.44;90.28;96666.56;5019344;28;21062;-71
2022/11/16 07:18:33;;;;;;;29.83;20.60;;;6.80;99.90;;;6.88;90.94;96712.13;5032294;28;20456;-70
2022/11/16 07:21:07;;;;;;;27.47;20.77;;;6.80;99.90;;;6.87;90.36;96707.78;5023342;28;20556;-69
2022/11/16 07:23:35;;;;;;;25.70;19.20;;;6.90;99.90;;;6.89;91.03;96716.44;5018895;28;20472;-74
2022/11/16 07:26:04;;;;;;;24.40;19.60;;;6.90;99.90;;;6.95;90.08;96715.56;5018380;28;20468;-72
2022/11/16 07:28:31;;;;;;;26.63;20.37;;;7.00;99.90;;;6.50;90.79;96663.81;5027092;28;20517;-70
2022/11/16 07:31:01;;;;;;;24.17;19.47;;;6.90;99.90;;;6.64;89.25;96660.97;5020050;28;20531;-71
2022/11/16 07:33:29;;;;;;;26.80;19.97;;;7.00;99.90;;;7.11;89.64;96729.44;5021507;28;20461;-70
2022/11/16 07:36:01;;;;;;;26.30;19.00;;;7.00;99.90;;;7.02;91.27;96745.84;5014961;28;20842;-71
2022/11/16 07:38:31;;;;;;;29.90;22.20;;;7.10;99.90;;;7.35;89.30;96762.63;5012922;28;20694;-71
2022/11/16 07:41:02;;;;;;;23.30;18.90;;;7.10;99.90;;;7.41;88.01;96763.59;5017475;28;20463;-70
2022/11/16 07:43:30;;;;;;;22.63;18.40;;;7.20;99.90;;;7.40;88.06;96768.13;5015861;28;20599;-70
2022/11/16 07:46:02;;;;;;;23.77;19.47;;;7.30;99.90;;;7.27;88.66;96769.13;5009742;28;20450;-73
2022/11/16 07:48:29;;;;;;;22.13;17.97;;;7.20;99.90;;;7.40;88.98;96770.00;5013589;28;20462;-73
2022/11/16 07:51:01;;;;;;;23.60;18.37;;;7.30;99.90;;;7.29;89.00;96788.53;5022374;28;20525;-72
2022/11/16 07:53:31;;;;;;;23.80;19.17;;;7.30;99.90;;;7.08;89.93;96782.56;5006917;28;20486;-70
2022/11/16 07:55:58;;;;;;;24.40;19.07;;;7.30;99.90;;;7.30;90.36;96770.53;5016157;28;20461;-72
2022/11/16 07:58:28;;;;;;;26.83;19.97;;;7.30;99.90;;;7.14;90.33;96771.97;5021144;28;20791;-71
2022/11/16 08:00:55;;;;;;;24.23;19.67;;;7.30;99.90;;;7.17;89.92;96782.25;5029738;28;20466;-70
2022/11/16 08:03:22;;;;;;;29.10;21.83;;;7.30;99.90;;;7.18;90.73;96773.13;5019524;28;20490;-72
2022/11/16 08:06:00;;;;;;;26.50;20.43;;;7.30;99.90;;;7.21;90.52;96784.25;5015757;28;20452;-69
2022/11/16 08:08:27;;;;;;;26.47;19.13;;;7.30;99.90;;;7.09;91.06;96770.78;5022520;28;20468;-70
2022/11/16 08:11:00;;;;;;;22.13;17.90;;;7.30;99.90;;;7.16;90.32;96769.88;5022408;28;20478;-68
2022/11/16 08:13:30;;;;;;;22.30;18.30;;;7.30;99.90;;;7.06;91.16;96781.13;5020288;28;20463;-69
2022/11/16 08:16:01;;;;;;;25.03;17.33;;;7.20;99.90;;;7.07;91.29;96767.50;5026608;28;20523;-69
2022/11/16 08:18:28;;;;;;;24.33;17.90;;;7.30;99.90;;;7.09;91.47;96765.41;5030672;28;20523;-70
2022/11/16 08:20:58;;;;;;;25.80;18.70;;;7.20;99.90;;;7.05;91.67;96769.59;5038648;28;20450;-70
2022/11/16 08:23:25;;;;;;;20.70;17.33;;;7.20;99.90;;;6.91;92.27;96762.72;5024461;28;20477;-69
2022/11/16 08:25:52;;;;;;;22.23;17.43;;;7.20;99.90;;;6.93;92.26;96776.72;5036493;28;20787;-71
2022/11/16 08:28:21;;;;;;;23.13;19.23;;;7.10;99.90;;;7.07;92.20;96774.72;5026086;28;20974;-70
2022/11/16 08:30:50;;;;;;;23.73;19.37;;;7.20;99.90;;;7.02;92.59;96772.69;5037373;28;20930;-70
2022/11/16 08:33:19;;;;;;;24.83;18.50;;;7.10;99.90;;;6.94;93.00;96779.19;5035299;28;20914;-70
2022/11/16 08:35:47;;;;;;;23.80;18.60;;;7.10;99.90;;;7.13;92.38;96775.69;5031070;28;20452;-70
2022/11/16 08:38:14;;;;;;;25.23;18.80;;;7.10;99.90;;;7.02;92.21;96766.50;5024280;28;20986;-70
2022/11/16 08:40:41;;;;;;;23.60;17.77;;;7.10;99.90;;;6.98;93.35;96771.50;5018148;28;20448;-70
2022/11/16 08:43:09;;;;;;;21.50;17.43;;;7.10;99.90;;;6.97;93.52;96772.56;5022325;28;20492;-68
2022/11/16 08:45:39;;;;;;;24.43;19.80;;;7.10;99.90;;;7.02;93.16;96775.38;5028898;28;20458;-69
2022/11/16 08:48:07;;;;;;;25.80;19.70;;;7.20;99.90;;;7.15;93.54;96768.22;5022483;28;21046;-70
2022/11/16 08:50:34;;;;;;;22.93;18.80;;;7.20;99.90;;;7.29;92.77;96769.72;5033083;28;20459;-70
2022/11/16 08:53:01;;;;;;;21.93;18.30;;;7.30;99.90;;;7.25;92.47;96765.00;5023407;28;20512;-70
2022/11/16 08:55:28;;;;;;;22.80;18.90;;;7.30;99.90;;;7.18;92.48;96767.78;5046198;28;21028;-70
2022/11/16 08:57:56;;;;;;;25.67;18.10;;;7.30;99.90;;;7.21;93.20;96762.78;5027437;28;20453;-70
2022/11/16 09:00:23;;;;;;;20.77;16.73;;;7.30;99.90;;;7.08;93.16;96769.13;5046149;28;20971;-70
2022/11/16 09:02:54;;;;;;;23.13;18.87;;;7.30;99.90;;;7.00;93.53;96772.09;5029831;28;20886;-70
2022/11/16 09:05:21;;;;;;;22.43;17.70;;;7.30;99.90;;;7.06;93.77;96765.84;5030366;28;20456;-71
2022/11/16 09:07:49;;;;;;;22.80;17.17;;;7.30;99.90;;;7.08;93.38;96765.59;5032748;28;20439;-69
2022/11/16 09:10:17;;;;;;;22.40;16.90;;;7.30;99.90;;;7.09;93.61;96770.78;5044855;28;20542;-71
2022/11/16 09:12:45;;;;;;;25.03;18.67;;;7.30;99.90;;;7.18;93.67;96778.50;5027497;28;20452;-70
2022/11/16 09:15:13;;;;;;;22.10;17.13;;;7.30;99.90;;;7.28;93.45;96777.97;5037770;28;20488;-70
2022/11/16 09:17:40;;;;;;;22.30;17.63;;;7.30;99.90;;;7.46;92.05;96769.09;5034339;28;20447;-70
2022/11/16 09:20:10;;;;;;;22.20;17.30;;;7.40;99.90;;;7.42;91.73;96768.72;5037969;28;20886;-70
2022/11/16 09:22:37;;;;;;;21.97;17.83;;;7.50;99.90;;;7.40;92.12;96770.00;5032522;28;20447;-69
2022/11/16 09:25:06;;;;;;;20.80;16.40;;;7.50;99.90;;;7.33;92.59;96764.72;5033948;28;20473;-70
2022/11/16 09:27:33;;;;;;;19.63;16.10;;;7.50;99.90;;;7.54;92.18;96773.34;5036186;28;20456;-69
2022/11/16 09:30:00;;;;;;;20.40;16.37;;;7.50;99.90;;;7.48;91.53;96780.44;5027684;28;20793;-69
2022/11/16 09:32:28;;;;;;;18.83;16.50;;;7.60;99.90;;;7.52;92.07;96784.34;5023125;28;20467;-69
2022/11/16 09:34:55;;;;;;;19.50;15.97;;;7.50;99.90;;;7.55;91.21;96778.50;5022679;28;20460;-71
2022/11/16 09:37:24;;;;;;;19.37;16.13;;;7.60;99.90;;;7.60;91.54;96788.59;5035377;28;20464;-70
2022/11/16 09:39:51;;;;;;;20.17;17.00;;;7.60;99.90;;;7.63;91.30;96783.56;5020748;28;20446;-68
2022/11/16 09:42:32;;;;;;;21.33;17.67;;;7.60;99.90;;;7.73;91.09;96780.31;5020853;28;20538;-71
2022/11/16 09:45:05;;;;;;;20.53;16.50;;;7.70;99.90;;;7.72;90.48;96788.63;5017335;28;20604;-69
2022/11/16 09:47:49;;;;;;;18.50;16.20;;;7.70;99.90;;;7.68;91.25;96785.56;5018802;28;20800;-69
2022/11/16 09:50:41;;;;;;;19.93;16.70;;;7.70;99.90;;;7.69;90.96;96800.66;5028210;28;20454;-71
2022/11/16 09:53:22;;;;;;;19.70;16.27;;;7.70;99.90;;;7.15;91.26;96741.38;5019700;28;20455;-69
2022/11/16 09:55:53;;;;;;;19.27;16.73;;;7.70;99.90;;;7.72;91.11;96789.44;5013792;28;20464;-70
2022/11/16 09:58:26;;;;;;;21.30;17.40;;;7.70;99.90;;;7.64;91.44;96804.00;5019770;28;20857;-70
2022/11/16 10:00:59;;;;;;;26.33;19.10;;;7.70;99.90;;;7.79;90.80;96797.41;5012825;28;20466;-70
2022/11/16 10:03:36;;;;;;;24.53;16.70;;;7.80;99.90;;;8.14;89.38;96790.53;5038177;28;20507;-71
2022/11/16 10:06:06;;;;;;;20.23;17.73;;;7.90;99.90;;;8.22;88.92;96785.63;5017843;28;20460;-71
2022/11/16 10:08:43;;;;;;;29.07;18.40;;;8.10;99.90;;;8.11;89.39;96786.41;5016634;28;20458;-70
2022/11/16 10:11:29;;;;;;;20.40;16.70;;;8.10;99.90;;;8.28;88.65;96788.47;5019502;28;20509;-69
2022/11/16 10:14:11;;;;;;;25.27;17.43;;;8.20;99.90;;;8.10;89.15;96794.72;5027103;28;20449;-70
2022/11/16 10:16:43;;;;;;;22.43;16.93;;;8.20;99.90;;;8.07;89.79;96785.22;5039707;28;20516;-71
2022/11/16 10:19:19;;;;;;;21.10;17.97;;;8.10;99.90;;;8.34;88.83;96785.69;5026110;28;20457;-70
2022/11/16 10:21:58;;;;;;;20.17;16.27;;;8.30;99.90;;;8.40;87.27;96783.91;5016959;28;20467;-70
2022/11/16 10:24:44;;;;;;;18.87;15.50;;;8.40;99.90;;;8.54;87.65;96784.56;5020158;28;20482;-69
2022/11/16 10:27:31;;;;;;;19.23;15.77;;;8.40;99.80;;;8.60;86.81;96789.00;5020472;28;20467;-69
2022/11/16 10:30:09;;;;;;;20.73;16.70;;;8.50;98.20;;;8.57;86.03;96776.00;5022182;28;20495;-72
2022/11/16 10:32:43;;;;;;;19.47;15.47;;;8.70;96.80;;;8.81;86.00;96777.88;5016314;28;20471;-71
2022/11/16 10:35:18;;;;;;;18.10;15.30;;;8.70;96.80;;;9.05;84.67;96773.31;5015706;28;20456;-72
2022/11/16 10:37:50;;;;;;;22.30;16.43;;;8.90;96.70;;;9.13;83.89;96758.66;5015397;28;21207;-70
2022/11/16 10:40:23;;;;;;;16.13;14.13;;;9.10;95.60;;;9.11;84.62;96768.84;5016926;28;20470;-71
2022/11/16 10:43:00;;;;;;;19.50;15.67;;;9.10;95.20;;;8.77;84.62;96772.13;5037083;28;21337;-71
2022/11/16 10:45:39;;;;;;;18.60;15.60;;;9.10;94.50;;;9.11;84.38;96776.94;5020846;28;20456;-71
2022/11/16 10:48:23;;;;;;;17.50;14.80;;;9.10;95.10;;;9.32;83.39;96781.69;5015164;28;20461;-70
2022/11/16 10:50:52;;;;;;;21.73;15.07;;;9.20;94.70;;;9.27;84.46;96786.19;5008672;28;20484;-72
2022/11/16 10:53:28;;;;;;;17.83;15.83;;;9.40;94.40;;;9.34;84.79;96771.50;5013678;28;20459;-72
2022/11/16 10:56:16;;;;;;;20.10;15.23;;;9.30;94.70;;;9.57;82.41;96759.00;5017771;28;20462;-71
2022/11/16 10:58:56;;;;;;;17.80;15.83;;;9.50;94.00;;;9.95;81.36;96770.22;5028179;28;21922;-70
2022/11/16 11:01:34;;;;;;;19.20;16.00;;;9.70;93.60;;;9.70;82.03;96762.47;5016660;28;20850;-72
2022/11/16 11:04:22;;;;;;;17.23;14.70;;;9.70;93.10;;;10.31;80.66;96764.63;5020419;28;20562;-71
2022/11/16 11:06:52;;;;;;;19.13;15.73;;;10.00;92.60;;;10.26;79.81;96764.56;5019551;28;20465;-71
2022/11/16 11:09:29;;;;;;;16.17;14.07;;;10.10;91.30;;;10.29;80.37;96762.16;5019813;28;20913;-71
2022/11/16 11:15:02;;;;;;;15.20;13.60;;;10.40;91.00;;;10.55;79.05;96764.53;5019667;28;20501;-71
2022/11/16 11:17:32;;;;;;;16.50;13.67;;;10.40;90.50;;;10.34;79.66;96761.44;5028626;28;20826;-71
2022/11/16 11:20:02;;;;;;;15.47;13.90;;;10.30;90.50;;;10.10;81.19;96748.09;5018245;28;20462;-69